Time;durP1;ratioP1;P1;durP2;ratioP2;P2;SDS_P1;SDS_P2;PMS_P1;PMS_P2;Temp;Humidity;BMP_temperature;BMP_pressure;BME280_temperature;BME280_humidity;BME280_pressure;Samples;Min_cycle;Max_cycle;Signal;HPM_P1;HPM_P2
2022/07/12 00:00:09;;;;;;;19.23;8.43;;;;;;;18.48;86.84;101189.87;1802529;79;21066;-71
2022/07/12 00:02:38;;;;;;;15.40;9.33;;;;;;;18.45;87.08;101188.73;1802650;79;21101;-68
2022/07/12 00:05:07;;;;;;;16.20;9.20;;;;;;;18.44;87.18;101185.71;1802558;79;21043;-68
2022/07/12 00:07:36;;;;;;;22.45;11.10;;;;;;;18.45;87.16;101194.06;1801767;79;21081;-68
2022/07/12 00:10:05;;;;;;;14.87;9.73;;;;;;;18.44;87.22;101192.38;1801887;79;21220;-73
2022/07/12 00:12:34;;;;;;;17.25;9.18;;;;;;;18.43;87.14;101193.31;1802534;79;21528;-71
2022/07/12 00:15:03;;;;;;;14.10;9.45;;;;;;;18.39;87.10;101191.81;1802560;79;21563;-71
2022/07/12 00:17:32;;;;;;;13.98;8.40;;;;;;;18.38;87.32;101194.57;1773905;79;21109;-71
2022/07/12 00:20:00;;;;;;;13.32;8.75;;;;;;;18.35;87.36;101194.76;1773803;81;21065;-68
2022/07/12 00:22:29;;;;;;;12.63;8.18;;;;;;;18.34;87.37;101193.91;1773703;81;21081;-71
2022/07/12 00:24:58;;;;;;;15.32;8.03;;;;;;;18.34;87.25;101193.91;1773737;81;21070;-72
2022/07/12 00:27:28;;;;;;;13.40;8.40;;;;;;;18.33;87.16;101203.73;1775493;79;21163;-73
2022/07/12 00:29:56;;;;;;;14.45;8.30;;;;;;;18.33;87.27;101202.84;1773764;81;21077;-69
2022/07/12 00:32:25;;;;;;;14.50;7.50;;;;;;;18.31;87.35;101196.77;1773826;81;21082;-71
2022/07/12 00:34:53;;;;;;;19.32;8.30;;;;;;;18.30;87.24;101205.25;1773823;81;21143;-68
2022/07/12 00:37:22;;;;;;;16.02;9.63;;;;;;;18.29;87.39;101204.00;1775703;79;21078;-69
2022/07/12 00:39:51;;;;;;;16.70;9.25;;;;;;;18.28;87.31;101205.83;1773658;81;21101;-69
2022/07/12 00:42:19;;;;;;;18.15;8.33;;;;;;;18.25;87.21;101202.02;1773824;81;21152;-69
2022/07/12 00:44:48;;;;;;;15.53;8.53;;;;;;;18.24;87.33;101209.65;1773816;81;21046;-67
2022/07/12 00:47:23;;;;;;;11.55;8.38;;;;;;;18.22;87.36;101210.68;1775730;79;21159;-69
2022/07/12 00:49:51;;;;;;;13.28;8.28;;;;;;;18.19;87.52;101210.90;1772764;81;21074;-70
2022/07/12 00:52:20;;;;;;;12.88;7.60;;;;;;;18.18;87.59;101212.69;1773730;81;21081;-69
2022/07/12 00:54:49;;;;;;;13.28;9.10;;;;;;;18.16;87.56;101213.75;1790270;79;21062;-71
2022/07/12 00:57:18;;;;;;;15.30;8.23;;;;;;;18.13;87.54;101218.32;1801664;79;21034;-70
2022/07/12 00:59:46;;;;;;;12.30;8.43;;;;;;;18.13;87.56;101217.47;1802471;79;21590;-70
2022/07/12 01:02:15;;;;;;;12.50;8.35;;;;;;;18.11;87.34;101213.56;1776557;79;21159;-71
2022/07/12 01:04:45;;;;;;;14.65;7.65;;;;;;;18.11;87.19;101219.35;1773787;81;21089;-72
2022/07/12 01:07:15;;;;;;;13.32;7.78;;;;;;;18.09;87.18;101216.81;1773923;81;21129;-66
2022/07/12 01:09:45;;;;;;;13.48;7.90;;;;;;;18.06;87.19;101225.47;1773814;81;21077;-64
2022/07/12 01:12:14;;;;;;;14.55;8.73;;;;;;;18.03;87.18;101226.98;1775650;79;21223;-65
2022/07/12 01:14:44;;;;;;;17.52;8.15;;;;;;;18.01;87.22;101224.41;1773809;81;21716;-65
2022/07/12 01:17:13;;;;;;;13.35;7.37;;;;;;;18.00;87.49;101227.16;1798763;79;21589;-66
2022/07/12 01:19:43;;;;;;;15.50;6.85;;;;;;;17.98;87.41;101233.92;1802583;79;21604;-65
2022/07/12 01:22:14;;;;;;;10.32;6.58;;;;;;;17.97;87.30;101234.04;1800660;79;21050;-65
2022/07/12 01:24:43;;;;;;;13.10;7.97;;;;;;;17.95;87.28;101235.46;1802618;79;21061;-65
2022/07/12 01:27:13;;;;;;;11.05;6.70;;;;;;;17.91;87.40;101232.62;1802715;79;21082;-65
2022/07/12 01:29:42;;;;;;;16.02;8.28;;;;;;;17.89;87.29;101235.38;1802742;79;21061;-66
2022/07/12 01:32:26;;;;;;;11.35;7.65;;;;;;;17.86;87.21;101240.03;1800471;79;21144;-65
2022/07/12 01:35:06;;;;;;;11.30;6.47;;;;;;;17.82;87.23;101243.81;1802742;79;21074;-67
2022/07/12 01:37:40;;;;;;;11.18;6.85;;;;;;;17.77;87.33;101241.89;1802757;79;21140;-67
2022/07/12 01:40:12;;;;;;;17.30;7.65;;;;;;;17.73;87.25;101247.40;1794431;79;21165;-68
2022/07/12 01:42:41;;;;;;;13.00;7.37;;;;;;;17.70;87.29;101244.91;1769361;81;21090;-65
2022/07/12 01:45:10;;;;;;;13.90;9.05;;;;;;;17.69;87.42;101245.03;1771365;81;21568;-67
2022/07/12 01:47:39;;;;;;;19.30;7.45;;;;;;;17.67;87.42;101247.78;1771485;81;21106;-68
2022/07/12 01:50:10;;;;;;;12.60;7.50;;;;;;;17.68;87.37;101248.62;1771360;81;21074;-70
2022/07/12 01:52:41;;;;;;;15.85;8.23;;;;;;;17.66;87.26;101250.05;1771400;81;21106;-70
2022/07/12 01:55:12;;;;;;;12.10;6.42;;;;;;;17.65;87.29;101252.35;1769211;81;21114;-66
2022/07/12 01:57:43;;;;;;;15.50;7.75;;;;;;;17.64;87.23;101250.63;1771459;81;21102;-66
2022/07/12 02:00:14;;;;;;;14.33;6.78;;;;;;;17.62;87.18;101249.02;1771363;81;21094;-63
2022/07/12 02:02:44;;;;;;;11.28;6.78;;;;;;;17.61;87.04;101257.94;1771355;81;21062;-65
2022/07/12 02:05:13;;;;;;;10.95;6.95;;;;;;;17.59;87.04;101251.37;1769288;81;21070;-65
2022/07/12 02:07:41;;;;;;;11.30;6.80;;;;;;;17.59;87.09;101252.70;1771356;81;21061;-63
2022/07/12 02:10:11;;;;;;;15.38;6.85;;;;;;;17.59;87.09;101255.36;1771435;81;21141;-65
2022/07/12 02:12:39;;;;;;;12.13;6.20;;;;;;;17.60;87.03;101262.90;1771335;81;21505;-65
2022/07/12 02:15:09;;;;;;;11.68;7.45;;;;;;;17.62;86.88;101260.52;1769070;81;21152;-64
2022/07/12 02:17:38;;;;;;;18.77;7.75;;;;;;;17.65;86.88;101267.00;1771339;81;21095;-74
2022/07/12 02:20:08;;;;;;;9.45;6.70;;;;;;;17.70;86.92;101267.55;1771263;81;21145;-72
2022/07/12 02:22:37;;;;;;;12.82;6.60;;;;;;;17.77;86.95;101268.53;1771343;81;21524;-72
2022/07/12 02:25:06;;;;;;;10.08;7.42;;;;;;;17.84;86.83;101266.72;1769337;81;21086;-72
2022/07/12 02:27:35;;;;;;;8.98;6.42;;;;;;;17.92;86.68;101266.28;1771368;81;21074;-73
2022/07/12 02:30:04;;;;;;;7.72;5.55;;;;;;;18.01;86.54;101276.86;1771331;81;21093;-73
2022/07/12 02:32:33;;;;;;;21.68;6.28;;;;;;;18.08;86.30;101277.70;1771194;81;21047;-65
2022/07/12 02:35:01;;;;;;;11.22;5.85;;;;;;;18.16;86.08;101275.05;1771388;81;21042;-64
2022/07/12 02:37:30;;;;;;;7.80;4.40;;;;;;;18.25;85.84;101273.13;1769374;81;21078;-65
2022/07/12 02:42:45;;;;;;;8.23;4.25;;;;;;;18.43;85.04;101278.63;1771274;81;21070;-67
2022/07/12 02:45:14;;;;;;;6.10;4.25;;;;;;;18.47;84.35;101273.48;1771294;81;21145;-68
2022/07/12 02:47:42;;;;;;;6.78;3.92;;;;;;;18.57;83.95;101277.73;1769065;81;21070;-72
2022/07/12 02:50:11;;;;;;;6.70;4.55;;;;;;;18.68;83.69;101282.39;1771371;81;21161;-66
2022/07/12 02:52:40;;;;;;;5.70;4.35;;;;;;;18.79;82.96;101277.20;1771254;81;21171;-69
2022/07/12 02:55:09;;;;;;;5.60;3.40;;;;;;;18.89;82.67;101281.03;1771326;81;21525;-68
2022/07/12 02:57:37;;;;;;;13.30;3.58;;;;;;;19.01;82.37;101283.84;1769234;81;21075;-71
2022/07/12 03:00:07;;;;;;;4.55;3.67;;;;;;;19.14;82.21;101284.73;1771333;81;21066;-72
2022/07/12 03:02:36;;;;;;;11.65;3.90;;;;;;;19.25;81.58;101284.87;1771383;81;21074;-70
2022/07/12 03:05:05;;;;;;;5.30;3.10;;;;;;;19.34;80.86;101286.56;1771343;81;21101;-68
2022/07/12 03:07:33;;;;;;;8.33;2.83;;;;;;;19.46;80.89;101289.27;1769291;81;21078;-69
2022/07/12 03:10:02;;;;;;;6.78;3.20;;;;;;;19.63;80.97;101284.10;1771230;81;21062;-70
2022/07/12 03:12:31;;;;;;;5.97;2.75;;;;;;;19.79;80.56;101279.06;1771306;81;21153;-68
2022/07/12 03:15:00;;;;;;;5.17;3.30;;;;;;;19.93;80.26;101278.95;1770154;81;21170;-69
2022/07/12 03:17:28;;;;;;;8.78;3.05;;;;;;;20.09;79.96;101284.59;1743491;82;21070;-71
2022/07/12 03:19:57;;;;;;;7.42;2.95;;;;;;;20.19;78.77;101282.46;1743470;82;21097;-73
2022/07/12 03:22:26;;;;;;;7.33;3.08;;;;;;;20.29;78.59;101286.70;1743375;82;21117;-74
2022/07/12 03:24:54;;;;;;;5.60;2.83;;;;;;;20.35;77.45;101284.91;1743519;82;21038;-67
2022/07/12 03:27:23;;;;;;;6.58;3.37;;;;;;;20.37;76.83;101286.14;1745310;81;21054;-71
2022/07/12 03:29:51;;;;;;;5.45;2.50;;;;;;;20.42;76.27;101287.52;1743524;82;21074;-70
2022/07/12 03:32:20;;;;;;;7.35;2.65;;;;;;;20.54;76.41;101292.95;1743398;82;21156;-73
2022/07/12 03:34:49;;;;;;;11.85;3.62;;;;;;;20.64;76.40;101290.02;1743345;82;21046;-74
2022/07/12 03:37:17;;;;;;;6.40;2.95;;;;;;;20.74;76.09;101283.50;1745228;81;21152;-69
2022/07/12 03:39:46;;;;;;;5.45;2.08;;;;;;;20.82;75.90;101284.66;1743423;82;21074;-71
2022/07/12 03:42:14;;;;;;;5.55;2.42;;;;;;;20.93;75.83;101278.48;1758728;81;21144;-66
2022/07/12 03:44:43;;;;;;;8.25;2.35;;;;;;;21.02;75.52;101278.29;1773727;81;21042;-69
2022/07/12 03:47:12;;;;;;;7.90;2.27;;;;;;;21.11;75.30;101285.63;1775598;79;21089;-67
2022/07/12 03:49:41;;;;;;;7.62;2.47;;;;;;;21.25;75.12;101281.05;1773618;81;21290;-68
2022/07/12 03:52:10;;;;;;;7.10;2.50;;;;;;;21.37;74.68;101286.83;1773663;81;21176;-71
2022/07/12 03:54:39;;;;;;;3.45;1.85;;;;;;;21.42;73.76;101287.34;1773700;81;21121;-71
2022/07/12 03:57:13;;;;;;;10.75;2.30;;;;;;;21.53;73.63;101285.22;1774283;79;21536;-69
2022/07/12 03:59:43;;;;;;;3.27;2.17;;;;;;;21.64;73.13;101288.41;1767249;79;21085;-68
2022/07/12 04:02:13;;;;;;;2.87;1.87;;;;;;;21.74;72.65;101289.39;1772630;79;21145;-71
2022/07/12 04:04:42;;;;;;;4.30;2.02;;;;;;;21.84;71.78;101288.18;1745633;81;21079;-66
2022/07/12 04:07:11;;;;;;;3.98;1.75;;;;;;;21.91;70.64;101291.63;1759803;79;21523;-72
2022/07/12 04:09:42;;;;;;;3.45;1.90;;;;;;;22.04;70.09;101291.98;1782816;79;21242;-71
2022/07/12 04:12:22;;;;;;;2.45;1.50;;;;;;;22.18;69.64;101293.09;1773697;81;21130;-72
2022/07/12 04:14:58;;;;;;;4.87;1.52;;;;;;;22.38;69.33;101293.38;1773308;79;21227;-69
2022/07/12 04:17:26;;;;;;;3.10;1.40;;;;;;;22.58;68.41;101296.64;1773135;81;21082;-67
2022/07/12 04:19:55;;;;;;;5.45;2.05;;;;;;;22.84;68.03;101305.24;1773987;81;21050;-67
2022/07/12 04:22:24;;;;;;;3.17;1.50;;;;;;;23.13;67.55;101305.55;1773933;79;21266;-69
2022/07/12 04:24:52;;;;;;;11.05;2.05;;;;;;;23.46;67.00;101305.52;1773716;81;21152;-67
2022/07/12 04:27:21;;;;;;;13.15;2.12;;;;;;;23.81;66.59;101309.28;1779549;79;21598;-70
2022/07/12 04:29:50;;;;;;;4.28;1.62;;;;;;;24.11;65.80;101314.79;1757577;80;21076;-66
2022/07/12 04:32:19;;;;;;;3.05;1.80;;;;;;;24.43;65.17;101313.31;1751250;79;21106;-67
2022/07/12 04:34:49;;;;;;;6.12;1.37;;;;;;;24.77;64.57;101322.42;1781492;79;21123;-71
2022/07/12 04:37:17;;;;;;;2.47;1.55;;;;;;;25.04;63.77;101319.92;1777374;79;21081;-67
2022/07/12 04:39:46;;;;;;;7.42;1.40;;;;;;;25.36;63.35;101317.98;1787488;79;21119;-65
2022/07/12 04:42:15;;;;;;;3.27;1.90;;;;;;;25.72;62.82;101318.23;1773635;81;21199;-66
2022/07/12 04:44:44;;;;;;;3.80;1.77;;;;;;;25.99;62.13;101317.50;1795686;80;21070;-65
2022/07/12 04:47:12;;;;;;;4.95;2.35;;;;;;;26.23;61.59;101318.81;1798244;80;21124;-64
2022/07/12 04:49:41;;;;;;;2.52;1.70;;;;;;;26.36;60.32;101319.36;1798169;80;21058;-65
2022/07/12 04:52:10;;;;;;;9.33;1.37;;;;;;;26.54;60.00;101324.30;1798028;80;21121;-65
2022/07/12 04:54:38;;;;;;;4.22;2.30;;;;;;;26.73;59.62;101322.53;1788831;80;21065;-64
2022/07/12 04:57:13;;;;;;;6.22;2.37;;;;;;;27.05;59.19;101318.47;1772050;79;21101;-68
2022/07/12 04:59:42;;;;;;;6.37;3.37;;;;;;;27.32;58.60;101326.53;1771471;79;21524;-64
2022/07/12 05:02:11;;;;;;;5.58;1.85;;;;;;;27.47;56.46;101324.63;1774227;79;21158;-71
2022/07/12 05:04:39;;;;;;;2.10;1.25;;;;;;;27.49;56.24;101322.62;1754417;79;21067;-66
2022/07/12 05:07:08;;;;;;;3.17;1.20;;;;;;;27.79;56.61;101328.58;1756335;79;21153;-69
2022/07/12 05:09:37;;;;;;;2.10;1.42;;;;;;;28.04;56.52;101325.06;1774232;79;21073;-65
2022/07/12 05:12:07;;;;;;;2.25;1.37;;;;;;;28.25;56.08;101326.52;1773930;81;21019;-63
2022/07/12 05:14:36;;;;;;;4.47;1.77;;;;;;;28.49;55.44;101325.78;1777687;80;21120;-63
2022/07/12 05:17:07;;;;;;;5.78;1.75;;;;;;;28.67;55.07;101326.55;1785620;80;21144;-64
2022/07/12 05:19:37;;;;;;;3.62;1.20;;;;;;;29.03;54.84;101315.47;1762540;81;21148;-64
2022/07/12 05:22:06;;;;;;;2.02;1.10;;;;;;;29.41;54.12;101321.80;1759769;81;21108;-60
2022/07/12 05:24:35;;;;;;;4.17;0.90;;;;;;;29.71;53.46;101316.67;1763058;81;21073;-62
2022/07/12 05:27:04;;;;;;;3.45;1.00;;;;;;;29.86;52.44;101320.92;1771450;81;21128;-62
2022/07/12 05:29:32;;;;;;;3.30;1.52;;;;;;;29.92;51.67;101319.73;1756014;81;21021;-64
2022/07/12 05:32:01;;;;;;;3.02;1.17;;;;;;;30.01;50.97;101322.77;1766613;79;21656;-63
2022/07/12 05:34:30;;;;;;;3.27;0.98;;;;;;;30.26;51.12;101323.20;1773977;81;21186;-61
2022/07/12 05:37:00;;;;;;;3.02;1.20;;;;;;;30.61;50.84;101321.88;1773891;80;21158;-62
2022/07/12 05:39:28;;;;;;;1.57;0.93;;;;;;;30.92;50.80;101323.78;1773476;81;21054;-63
2022/07/12 05:41:57;;;;;;;3.33;1.00;;;;;;;31.22;50.08;101323.39;1773776;81;21580;-63
2022/07/12 05:44:26;;;;;;;6.30;1.30;;;;;;;31.51;49.43;101325.92;1751158;81;21174;-62
2022/07/12 05:46:55;;;;;;;6.30;1.10;;;;;;;31.79;49.06;101322.06;1743560;82;21580;-62
2022/07/12 05:49:23;;;;;;;3.98;1.65;;;;;;;32.00;48.32;101320.48;1743501;82;21079;-61
2022/07/12 05:54:39;;;;;;;1.35;1.10;;;;;;;32.02;46.96;101318.41;1750630;81;21157;-63
2022/07/12 05:57:08;;;;;;;4.70;1.10;;;;;;;31.96;46.52;101321.90;1761712;81;21177;-61
2022/07/12 05:59:37;;;;;;;2.58;1.10;;;;;;;31.92;45.59;101318.17;1750385;81;21101;-65
2022/07/12 06:02:07;;;;;;;2.98;0.93;;;;;;;31.97;44.87;101316.80;1749504;81;21056;-65
2022/07/12 06:04:35;;;;;;;5.28;1.17;;;;;;;32.02;44.58;101322.50;1743501;82;21164;-64
2022/07/12 06:07:05;;;;;;;2.35;1.55;;;;;;;32.23;44.52;101317.72;1757684;81;21148;-66
2022/07/12 06:09:33;;;;;;;3.65;1.10;;;;;;;32.82;43.76;101322.24;1743580;82;21512;-65
2022/07/12 06:12:04;;;;;;;6.45;1.30;;;;;;;32.82;43.76;101322.24;1743465;82;21148;-65
2022/07/12 06:14:32;;;;;;;5.92;1.40;;;;;;;32.96;43.53;101314.53;1743547;81;21053;-66
2022/07/12 06:17:02;;;;;;;2.47;1.22;;;;;;;33.06;42.96;101315.04;1743486;82;21078;-63
2022/07/12 06:19:30;;;;;;;5.12;1.35;;;;;;;33.26;42.80;101311.17;1772529;81;21064;-65
2022/07/12 06:21:59;;;;;;;3.75;1.15;;;;;;;33.31;42.26;101320.65;1774959;81;21100;-64
2022/07/12 06:24:28;;;;;;;3.22;1.15;;;;;;;33.23;41.28;101333.91;1774877;81;21200;-65
2022/07/12 06:26:57;;;;;;;2.33;1.10;;;;;;;33.05;40.29;101305.19;1774825;81;21041;-65
2022/07/12 06:29:25;;;;;;;3.83;1.32;;;;;;;33.19;40.99;101312.16;1775049;81;21033;-64
2022/07/12 06:31:54;;;;;;;7.37;1.37;;;;;;;33.49;40.90;101314.72;1774846;81;21139;-64
2022/07/12 06:34:23;;;;;;;8.85;1.35;;;;;;;33.61;40.53;101307.69;1774708;81;21519;-65
2022/07/12 06:36:52;;;;;;;2.40;1.20;;;;;;;33.84;40.45;101318.37;1774871;81;21641;-65
2022/07/12 06:39:20;;;;;;;3.72;1.17;;;;;;;34.00;40.09;101315.86;1774969;81;21057;-64
2022/07/12 06:41:49;;;;;;;1.98;1.00;;;;;;;33.95;39.51;101318.34;1767949;81;21599;-64
2022/07/12 06:44:18;;;;;;;3.70;1.30;;;;;;;34.10;39.43;101317.68;1763220;79;21141;-63
2022/07/12 06:46:46;;;;;;;2.20;1.10;;;;;;;34.33;39.33;101323.42;1787009;79;21101;-66
2022/07/12 06:49:16;;;;;;;2.42;1.30;;;;;;;34.20;38.19;101302.34;1778303;79;21546;-64
2022/07/12 06:51:45;;;;;;;2.35;1.12;;;;;;;34.14;38.37;101315.39;1778551;80;21144;-63
2022/07/12 06:54:13;;;;;;;2.65;1.12;;;;;;;34.27;38.87;101314.64;1791280;80;21086;-63
2022/07/12 06:56:42;;;;;;;2.20;1.10;;;;;;;34.46;38.64;101312.53;1744239;82;21210;-63
2022/07/12 06:59:11;;;;;;;2.10;1.20;;;;;;;34.77;38.58;101315.31;1746124;81;21103;-62
2022/07/12 07:01:40;;;;;;;3.72;1.15;;;;;;;35.08;38.04;101322.08;1773097;81;21124;-62
2022/07/12 07:04:08;;;;;;;2.98;1.20;;;;;;;35.22;37.13;101323.83;1771345;80;21089;-64
2022/07/12 07:06:37;;;;;;;2.50;1.10;;;;;;;35.17;36.44;101323.56;1763681;81;21066;-64
2022/07/12 07:09:11;;;;;;;6.00;1.37;;;;;;;35.12;36.20;101324.21;1753024;81;21043;-64
2022/07/12 07:11:37;;;;;;;5.35;1.20;;;;;;;35.31;36.13;101323.94;1757820;80;21088;-65
2022/07/12 07:14:06;;;;;;;4.12;1.30;;;;;;;35.13;36.41;101324.52;1760695;81;21164;-65
2022/07/12 07:16:34;;;;;;;2.20;1.17;;;;;;;34.67;37.03;101320.28;1775553;79;21163;-62
2022/07/12 07:19:03;;;;;;;4.78;1.52;;;;;;;34.76;36.26;101316.34;1773857;81;21172;-64
2022/07/12 07:21:32;;;;;;;2.17;1.30;;;;;;;35.06;35.93;101318.72;1773864;81;21077;-64
2022/07/12 07:24:01;;;;;;;1.65;1.10;;;;;;;35.14;35.34;101318.53;1773742;81;21081;-63
2022/07/12 07:26:30;;;;;;;2.52;1.10;;;;;;;35.37;35.30;101313.50;1775664;79;21148;-63
2022/07/12 07:31:46;;;;;;;6.50;1.10;;;;;;;35.66;34.96;101318.77;1796268;79;21128;-63
2022/07/12 07:34:14;;;;;;;3.90;1.10;;;;;;;35.23;34.54;101309.10;1797601;79;21228;-65
2022/07/12 07:36:43;;;;;;;2.08;1.20;;;;;;;35.20;34.12;101301.30;1795448;79;21062;-65
2022/07/12 07:39:12;;;;;;;2.33;1.02;;;;;;;35.28;34.08;101309.83;1802560;79;21038;-65
2022/07/12 07:41:41;;;;;;;2.55;1.20;;;;;;;35.45;33.58;101305.63;1801595;79;21105;-64
2022/07/12 07:44:09;;;;;;;1.87;1.17;;;;;;;35.65;33.50;101302.84;1800243;79;21661;-65
2022/07/12 07:46:38;;;;;;;1.55;1.40;;;;;;;35.52;33.83;101303.70;1798951;79;21086;-63
2022/07/12 07:49:07;;;;;;;7.00;1.40;;;;;;;35.05;34.24;101300.63;1802756;79;21504;-63
2022/07/12 07:51:35;;;;;;;3.75;1.45;;;;;;;34.39;34.82;101302.09;1802512;79;21141;-63
2022/07/12 07:54:04;;;;;;;3.22;1.15;;;;;;;34.24;34.95;101299.52;1775421;79;21180;-66
2022/07/12 07:56:33;;;;;;;4.22;1.40;;;;;;;34.54;35.51;101283.64;1773868;81;21085;-66
2022/07/12 07:59:02;;;;;;;3.00;1.25;;;;;;;34.54;35.51;101283.64;1773720;81;21081;-66
2022/07/12 08:01:44;;;;;;;2.22;1.07;;;;;;;34.86;34.76;101303.12;1776881;79;21081;-66
2022/07/12 08:04:14;;;;;;;2.47;1.20;;;;;;;34.91;34.39;101299.22;1773811;81;21078;-65
2022/07/12 08:06:43;;;;;;;2.95;1.00;;;;;;;35.21;34.30;101292.02;1773794;81;21072;-64
2022/07/12 08:09:13;;;;;;;2.65;1.32;;;;;;;34.67;34.47;101292.41;1773729;81;21086;-67
2022/07/12 08:11:42;;;;;;;2.67;1.32;;;;;;;33.79;34.95;101293.04;1775800;79;21555;-65
2022/07/12 08:14:11;;;;;;;3.75;1.35;;;;;;;33.06;35.79;101283.67;1773658;81;21105;-65
2022/07/12 08:16:40;;;;;;;1.82;1.27;;;;;;;33.51;36.01;101297.63;1773879;79;21909;-64
2022/07/12 08:19:09;;;;;;;3.65;1.27;;;;;;;34.21;35.26;101288.48;1773741;81;21140;-64
2022/07/12 08:21:38;;;;;;;6.20;1.10;;;;;;;34.21;35.26;101288.48;1775659;79;21061;-67
2022/07/12 08:24:07;;;;;;;3.50;1.00;;;;;;;33.98;35.65;101294.73;1773830;81;21088;-64
2022/07/12 08:26:35;;;;;;;2.25;1.37;;;;;;;33.88;35.32;101292.87;1773735;81;21054;-64
2022/07/12 08:29:04;;;;;;;3.62;1.47;;;;;;;34.49;34.98;101290.27;1791508;79;21160;-64
2022/07/12 08:31:32;;;;;;;2.33;1.10;;;;;;;34.66;34.25;101287.13;1800467;79;21086;-64
2022/07/12 08:34:01;;;;;;;2.55;1.15;;;;;;;35.08;34.07;101289.25;1800445;79;21082;-65
2022/07/12 08:36:30;;;;;;;1.87;1.00;;;;;;;35.21;33.49;101294.75;1802528;79;21191;-64
2022/07/12 08:38:58;;;;;;;5.65;1.67;;;;;;;35.59;33.54;101287.28;1802644;79;21077;-64
2022/07/12 08:41:27;;;;;;;3.40;1.20;;;;;;;35.41;33.77;101282.97;1800343;79;21050;-64
2022/07/12 08:43:56;;;;;;;1.40;1.00;;;;;;;34.83;34.11;101284.38;1802536;79;21094;-63
2022/07/12 08:46:25;;;;;;;4.03;1.50;;;;;;;34.03;34.44;101289.48;1783808;79;21106;-64
2022/07/12 08:48:54;;;;;;;4.55;1.62;;;;;;;33.20;34.84;101286.55;1771368;81;21094;-69
2022/07/12 08:51:23;;;;;;;2.50;1.35;;;;;;;32.73;35.82;101287.42;1769380;81;21843;-68
2022/07/12 08:54:06;;;;;;;2.37;1.45;;;;;;;32.30;35.98;101282.70;1771367;81;21569;-68
2022/07/12 08:56:40;;;;;;;3.92;1.77;;;;;;;31.91;36.34;101290.63;1771443;81;21556;-67
2022/07/12 08:59:20;;;;;;;7.30;1.90;;;;;;;31.52;37.20;101288.13;1769374;81;21165;-65
2022/07/12 09:01:53;;;;;;;3.67;1.20;;;;;;;31.26;37.65;101281.19;1769515;81;21095;-65
2022/07/12 09:04:29;;;;;;;2.00;1.25;;;;;;;30.99;37.97;101279.90;1771304;81;21047;-60
2022/07/12 09:06:59;;;;;;;1.42;1.10;;;;;;;30.92;38.10;101288.44;1769320;81;21161;-60
2022/07/12 09:09:32;;;;;;;2.42;1.30;;;;;;;31.37;38.06;101286.70;1771434;81;21074;-61
2022/07/12 09:12:01;;;;;;;6.35;1.00;;;;;;;31.74;37.57;101283.17;1771502;81;21103;-61
2022/07/12 09:14:31;;;;;;;1.40;1.10;;;;;;;32.15;37.28;101280.52;1765565;81;21120;-61
2022/07/12 09:17:09;;;;;;;3.62;1.12;;;;;;;32.89;36.21;101274.08;1758995;81;21790;-61
2022/07/12 09:19:36;;;;;;;4.85;1.00;;;;;;;33.18;35.38;101272.26;1743638;82;21596;-64
2022/07/12 09:22:05;;;;;;;3.80;1.20;;;;;;;33.20;35.55;101275.62;1769521;81;21176;-64
2022/07/12 09:24:34;;;;;;;1.95;1.00;;;;;;;32.83;36.08;101277.55;1774912;81;21593;-64
2022/07/12 09:27:05;;;;;;;1.40;1.05;;;;;;;32.41;36.43;101280.54;1775000;81;21135;-65
2022/07/12 09:29:35;;;;;;;3.47;1.30;;;;;;;31.99;36.85;101276.08;1774826;81;21053;-64
2022/07/12 09:37:47;;;;;;;3.50;1.20;;;;;;;31.57;37.99;101282.16;1755362;81;21557;-62
2022/07/12 09:40:17;;;;;;;2.95;1.60;;;;;;;31.43;38.15;101281.05;1750890;81;21074;-61
2022/07/12 09:42:46;;;;;;;2.60;1.22;;;;;;;31.27;38.37;101277.98;1742389;82;21514;-61
2022/07/12 09:45:18;;;;;;;3.00;1.47;;;;;;;31.02;38.64;101276.80;1761507;81;21517;-61
2022/07/12 09:47:48;;;;;;;2.27;1.05;;;;;;;30.76;39.02;101275.77;1761963;80;21192;-61
2022/07/12 09:50:16;;;;;;;1.72;1.30;;;;;;;30.49;39.77;101271.17;1761652;81;21043;-61
2022/07/12 09:52:48;;;;;;;4.25;1.10;;;;;;;30.24;40.09;101271.77;1761533;81;21118;-61
2022/07/12 09:55:18;;;;;;;2.47;0.90;;;;;;;29.93;40.18;101271.19;1756208;81;21526;-61
2022/07/12 09:57:49;;;;;;;5.58;1.25;;;;;;;29.69;40.37;101269.36;1761734;81;21075;-62
2022/07/12 10:00:18;;;;;;;5.22;1.10;;;;;;;29.45;40.51;101273.83;1761570;81;21565;-63
2022/07/12 10:02:48;;;;;;;1.82;1.12;;;;;;;29.26;40.72;101270.94;1761445;81;21119;-63
2022/07/12 10:05:18;;;;;;;2.22;1.17;;;;;;;29.17;40.97;101267.88;1761671;81;21078;-63
2022/07/12 10:07:47;;;;;;;2.65;1.20;;;;;;;29.15;41.12;101265.85;1761586;81;21154;-63
2022/07/12 10:10:17;;;;;;;1.35;1.00;;;;;;;29.11;41.33;101272.61;1749231;81;21152;-63
2022/07/12 10:12:46;;;;;;;2.40;1.20;;;;;;;28.99;41.38;101275.30;1743524;82;21074;-62
2022/07/12 10:15:21;;;;;;;1.40;1.10;;;;;;;29.12;41.50;101274.80;1743494;81;21073;-61
2022/07/12 10:17:55;;;;;;;2.02;1.22;;;;;;;29.77;41.44;101268.52;1743489;82;21066;-62
2022/07/12 10:20:26;;;;;;;3.27;1.22;;;;;;;30.34;40.93;101264.78;1723949;82;21653;-61
2022/07/12 10:22:58;;;;;;;3.25;1.20;;;;;;;30.63;40.35;101264.64;1714839;83;21198;-61
2022/07/12 10:25:32;;;;;;;5.95;1.37;;;;;;;30.75;40.12;101269.48;1712927;83;21116;-64
2022/07/12 10:28:04;;;;;;;2.15;1.22;;;;;;;31.23;39.48;101269.86;1715044;83;21120;-61
2022/07/12 10:30:44;;;;;;;2.30;1.00;;;;;;;31.80;39.01;101265.73;1720105;82;21122;-62
2022/07/12 10:33:21;;;;;;;3.20;1.07;;;;;;;32.17;38.18;101264.83;1774523;81;21143;-62
2022/07/12 10:36:09;;;;;;;3.15;1.60;;;;;;;32.36;37.11;101257.93;1774993;81;21077;-63
2022/07/12 10:38:36;;;;;;;1.98;1.42;;;;;;;32.28;36.29;101255.33;1775280;79;21069;-63
2022/07/12 10:41:24;;;;;;;2.20;1.00;;;;;;;32.41;36.44;101256.02;1774892;81;21515;-62
2022/07/12 10:44:06;;;;;;;3.47;1.60;;;;;;;32.51;36.22;101249.72;1774988;81;21577;-63
2022/07/12 10:46:36;;;;;;;1.60;1.32;;;;;;;32.44;35.87;101249.63;1774906;79;21506;-62
2022/07/12 10:49:26;;;;;;;3.15;1.17;;;;;;;32.58;36.16;101245.22;1772226;81;21065;-62
2022/07/12 10:52:13;;;;;;;6.08;2.08;;;;;;;32.43;35.33;101245.76;1771652;81;21629;-64
2022/07/12 10:54:59;;;;;;;3.33;1.20;;;;;;;32.35;36.06;101254.03;1772108;81;21104;-62
2022/07/12 10:57:46;;;;;;;1.40;1.17;;;;;;;31.97;35.80;101248.19;1772257;81;21057;-62
2022/07/12 11:00:16;;;;;;;4.67;1.52;;;;;;;31.74;36.41;101242.83;1772141;81;21144;-63
2022/07/12 11:02:44;;;;;;;2.65;1.30;;;;;;;31.60;36.56;101247.24;1772254;81;21514;-63
2022/07/12 11:05:13;;;;;;;4.08;1.50;;;;;;;31.27;36.92;101248.05;1772029;81;21061;-64
2022/07/12 11:07:42;;;;;;;1.80;1.42;;;;;;;30.88;37.46;101248.50;1772166;81;21127;-63
2022/07/12 11:10:13;;;;;;;1.65;1.40;;;;;;;30.53;37.87;101248.05;1772224;81;21053;-63
2022/07/12 11:12:42;;;;;;;4.85;1.40;;;;;;;30.26;38.66;101254.78;1759644;81;21273;-64
2022/07/12 11:15:13;;;;;;;3.05;1.30;;;;;;;29.96;39.33;101257.28;1748812;81;21143;-63
2022/07/12 11:17:41;;;;;;;3.25;1.27;;;;;;;29.71;39.93;101259.17;1746002;82;21046;-63
2022/07/12 11:20:14;;;;;;;5.12;1.60;;;;;;;29.46;40.61;101251.61;1754705;81;21138;-63
2022/07/12 11:22:44;;;;;;;8.65;1.40;;;;;;;29.24;41.31;101260.77;1765794;81;21066;-63
2022/07/12 11:25:14;;;;;;;7.95;1.50;;;;;;;29.02;41.83;101261.42;1774115;81;21089;-63
2022/07/12 11:27:44;;;;;;;4.65;1.27;;;;;;;28.90;42.37;101266.81;1774181;81;21078;-61
2022/07/12 11:30:13;;;;;;;7.67;1.47;;;;;;;28.95;42.76;101267.17;1766398;80;21136;-63
2022/07/12 11:32:47;;;;;;;6.58;1.57;;;;;;;29.19;42.59;101271.27;1752019;81;21130;-63
2022/07/12 11:35:25;;;;;;;2.62;1.10;;;;;;;29.32;42.56;101269.92;1746045;82;21080;-63
2022/07/12 11:37:58;;;;;;;2.22;1.25;;;;;;;29.40;42.72;101269.90;1746046;82;21071;-62
2022/07/12 11:40:31;;;;;;;3.08;1.47;;;;;;;29.41;42.94;101268.89;1746513;81;21528;-64
2022/07/12 11:43:02;;;;;;;5.15;1.35;;;;;;;29.36;43.22;101262.61;1765956;80;21278;-62
2022/07/12 11:45:32;;;;;;;4.85;1.20;;;;;;;29.31;43.32;101271.80;1761931;81;21026;-61
2022/07/12 11:48:03;;;;;;;2.27;1.20;;;;;;;29.29;43.61;101277.03;1782973;79;21175;-61
2022/07/12 11:50:34;;;;;;;2.40;1.20;;;;;;;29.29;43.66;101272.48;1777128;79;21606;-62